Adrian, North Dakota
Current Conditions -  °F | °C
As of 3:56 AM on Friday 28 Nov 2014 (Local Time) from KJMS Reporting Station
Overcast Overcast  
Wind Chill: -8°   Ceiling: 2500
Heat Index:   Visibility: 7mi
Dew Point:   Wind: 10mph
Humidity: 84%   Direction: 100°E
Pressure: 29.9"   Gusts: NA
Location:  46.6526°N, 98.6214°W
Report Text: KJMS 280956Z AUTO 10009KT 7SM OVC025 M14/M16 A2990 RMK AO2 SLP161 T11391161
Loading
Personal Weather Stations






























Interactive Weather Map New forecast layout! Learn more

10-Day Weather Forecast

Advertisements
Track Severe Weather on mobile